sensor_id;sensor_type;location;lat;lon;timestamp;P1;durP1;ratioP1;P2;durP2;ratioP2
11490;SDS011;5802;52.832;4.758;2023-06-26T00:00:45;4.63;;;3.28;;
11490;SDS011;5802;52.832;4.758;2023-06-26T00:03:13;3.28;;;2.90;;
11490;SDS011;5802;52.832;4.758;2023-06-26T00:05:40;3.85;;;3.28;;
11490;SDS011;5802;52.832;4.758;2023-06-26T00:08:07;3.70;;;3.30;;
11490;SDS011;5802;52.832;4.758;2023-06-26T00:10:33;3.95;;;3.53;;
11490;SDS011;5802;52.832;4.758;2023-06-26T00:13:00;3.95;;;3.55;;
11490;SDS011;5802;52.832;4.758;2023-06-26T00:15:28;3.88;;;3.53;;
11490;SDS011;5802;52.832;4.758;2023-06-26T00:17:56;3.70;;;3.33;;
11490;SDS011;5802;52.832;4.758;2023-06-26T00:20:23;3.85;;;3.20;;
11490;SDS011;5802;52.832;4.758;2023-06-26T00:22:50;3.40;;;2.97;;
11490;SDS011;5802;52.832;4.758;2023-06-26T00:25:18;4.03;;;3.40;;
11490;SDS011;5802;52.832;4.758;2023-06-26T00:27:45;3.78;;;3.40;;
11490;SDS011;5802;52.832;4.758;2023-06-26T00:30:12;3.83;;;3.45;;
11490;SDS011;5802;52.832;4.758;2023-06-26T00:32:40;4.93;;;3.75;;
11490;SDS011;5802;52.832;4.758;2023-06-26T00:35:07;3.70;;;3.22;;
11490;SDS011;5802;52.832;4.758;2023-06-26T00:37:34;3.47;;;3.17;;
11490;SDS011;5802;52.832;4.758;2023-06-26T00:40:00;3.88;;;3.22;;
11490;SDS011;5802;52.832;4.758;2023-06-26T00:42:30;3.80;;;3.40;;
11490;SDS011;5802;52.832;4.758;2023-06-26T00:44:56;3.95;;;3.25;;
11490;SDS011;5802;52.832;4.758;2023-06-26T00:47:23;3.72;;;3.30;;
11490;SDS011;5802;52.832;4.758;2023-06-26T00:49:52;3.55;;;3.17;;
11490;SDS011;5802;52.832;4.758;2023-06-26T00:52:19;4.00;;;3.25;;
11490;SDS011;5802;52.832;4.758;2023-06-26T00:54:46;3.58;;;3.28;;
11490;SDS011;5802;52.832;4.758;2023-06-26T00:57:13;3.90;;;3.50;;
11490;SDS011;5802;52.832;4.758;2023-06-26T00:59:39;3.83;;;3.25;;
11490;SDS011;5802;52.832;4.758;2023-06-26T01:02:06;4.82;;;3.33;;
11490;SDS011;5802;52.832;4.758;2023-06-26T01:04:34;3.40;;;3.10;;
11490;SDS011;5802;52.832;4.758;2023-06-26T01:07:03;3.70;;;3.38;;
11490;SDS011;5802;52.832;4.758;2023-06-26T01:09:33;3.60;;;3.30;;
11490;SDS011;5802;52.832;4.758;2023-06-26T01:12:00;3.58;;;3.25;;
11490;SDS011;5802;52.832;4.758;2023-06-26T01:14:26;3.50;;;3.20;;
11490;SDS011;5802;52.832;4.758;2023-06-26T01:16:53;3.63;;;3.28;;
11490;SDS011;5802;52.832;4.758;2023-06-26T01:19:23;4.50;;;3.60;;
11490;SDS011;5802;52.832;4.758;2023-06-26T01:21:55;4.60;;;3.20;;
11490;SDS011;5802;52.832;4.758;2023-06-26T01:24:28;3.22;;;2.92;;
11490;SDS011;5802;52.832;4.758;2023-06-26T01:27:03;4.32;;;3.50;;
11490;SDS011;5802;52.832;4.758;2023-06-26T01:29:31;3.80;;;3.40;;
11490;SDS011;5802;52.832;4.758;2023-06-26T01:31:59;5.13;;;3.33;;
11490;SDS011;5802;52.832;4.758;2023-06-26T01:34:26;3.55;;;3.17;;
11490;SDS011;5802;52.832;4.758;2023-06-26T01:36:53;5.40;;;3.42;;
11490;SDS011;5802;52.832;4.758;2023-06-26T01:39:20;3.55;;;3.08;;
11490;SDS011;5802;52.832;4.758;2023-06-26T01:41:47;6.07;;;3.28;;
11490;SDS011;5802;52.832;4.758;2023-06-26T01:44:17;4.15;;;3.45;;
11490;SDS011;5802;52.832;4.758;2023-06-26T01:46:53;4.05;;;3.40;;
11490;SDS011;5802;52.832;4.758;2023-06-26T01:49:29;4.22;;;3.28;;
11490;SDS011;5802;52.832;4.758;2023-06-26T01:52:07;5.30;;;3.60;;
11490;SDS011;5802;52.832;4.758;2023-06-26T01:54:47;4.43;;;3.40;;
11490;SDS011;5802;52.832;4.758;2023-06-26T01:57:23;5.80;;;3.20;;
11490;SDS011;5802;52.832;4.758;2023-06-26T01:59:55;4.70;;;3.13;;
11490;SDS011;5802;52.832;4.758;2023-06-26T02:02:23;6.55;;;3.53;;
11490;SDS011;5802;52.832;4.758;2023-06-26T02:04:50;4.20;;;3.20;;
11490;SDS011;5802;52.832;4.758;2023-06-26T02:07:17;4.40;;;3.60;;
11490;SDS011;5802;52.832;4.758;2023-06-26T02:09:44;4.88;;;3.42;;
11490;SDS011;5802;52.832;4.758;2023-06-26T02:12:10;4.85;;;3.70;;
11490;SDS011;5802;52.832;4.758;2023-06-26T02:14:37;4.15;;;3.47;;
11490;SDS011;5802;52.832;4.758;2023-06-26T02:17:05;6.05;;;3.50;;
11490;SDS011;5802;52.832;4.758;2023-06-26T02:19:33;4.82;;;3.45;;
11490;SDS011;5802;52.832;4.758;2023-06-26T02:22:00;3.83;;;3.28;;
11490;SDS011;5802;52.832;4.758;2023-06-26T02:24:27;3.95;;;3.25;;
11490;SDS011;5802;52.832;4.758;2023-06-26T02:26:55;3.92;;;3.20;;
11490;SDS011;5802;52.832;4.758;2023-06-26T02:29:21;4.43;;;3.53;;
11490;SDS011;5802;52.832;4.758;2023-06-26T02:31:48;5.78;;;2.90;;
11490;SDS011;5802;52.832;4.758;2023-06-26T02:34:16;5.38;;;3.55;;
11490;SDS011;5802;52.832;4.758;2023-06-26T02:36:43;4.35;;;3.47;;
11490;SDS011;5802;52.832;4.758;2023-06-26T02:39:10;5.35;;;3.50;;
11490;SDS011;5802;52.832;4.758;2023-06-26T02:41:36;4.15;;;3.33;;
11490;SDS011;5802;52.832;4.758;2023-06-26T02:44:03;4.43;;;3.20;;
11490;SDS011;5802;52.832;4.758;2023-06-26T02:46:30;5.75;;;3.53;;
11490;SDS011;5802;52.832;4.758;2023-06-26T02:48:57;5.22;;;3.20;;
11490;SDS011;5802;52.832;4.758;2023-06-26T02:51:25;3.75;;;3.35;;
11490;SDS011;5802;52.832;4.758;2023-06-26T02:53:51;5.03;;;3.38;;
11490;SDS011;5802;52.832;4.758;2023-06-26T02:56:18;4.65;;;3.38;;
11490;SDS011;5802;52.832;4.758;2023-06-26T02:58:44;6.35;;;3.83;;
11490;SDS011;5802;52.832;4.758;2023-06-26T03:01:11;4.03;;;3.17;;
11490;SDS011;5802;52.832;4.758;2023-06-26T03:03:38;4.90;;;3.10;;
11490;SDS011;5802;52.832;4.758;2023-06-26T03:06:06;5.28;;;3.10;;
11490;SDS011;5802;52.832;4.758;2023-06-26T03:08:36;5.22;;;3.50;;
11490;SDS011;5802;52.832;4.758;2023-06-26T03:11:04;6.70;;;3.38;;
11490;SDS011;5802;52.832;4.758;2023-06-26T03:13:31;4.65;;;3.47;;
11490;SDS011;5802;52.832;4.758;2023-06-26T03:15:58;4.63;;;3.17;;
11490;SDS011;5802;52.832;4.758;2023-06-26T03:18:24;4.75;;;3.42;;
11490;SDS011;5802;52.832;4.758;2023-06-26T03:20:51;4.07;;;3.33;;
11490;SDS011;5802;52.832;4.758;2023-06-26T03:23:19;4.03;;;3.20;;
11490;SDS011;5802;52.832;4.758;2023-06-26T03:25:47;3.45;;;2.97;;
11490;SDS011;5802;52.832;4.758;2023-06-26T03:28:14;6.50;;;3.28;;
11490;SDS011;5802;52.832;4.758;2023-06-26T03:30:41;5.45;;;3.10;;
11490;SDS011;5802;52.832;4.758;2023-06-26T03:33:08;5.35;;;3.63;;
11490;SDS011;5802;52.832;4.758;2023-06-26T03:35:34;4.78;;;3.60;;
11490;SDS011;5802;52.832;4.758;2023-06-26T03:38:01;5.85;;;3.55;;
11490;SDS011;5802;52.832;4.758;2023-06-26T03:40:29;6.03;;;3.22;;
11490;SDS011;5802;52.832;4.758;2023-06-26T03:42:57;4.50;;;3.53;;
11490;SDS011;5802;52.832;4.758;2023-06-26T03:45:24;3.67;;;3.05;;
11490;SDS011;5802;52.832;4.758;2023-06-26T03:47:51;6.90;;;3.28;;
11490;SDS011;5802;52.832;4.758;2023-06-26T03:50:18;4.65;;;2.95;;
11490;SDS011;5802;52.832;4.758;2023-06-26T03:52:44;4.28;;;3.10;;
11490;SDS011;5802;52.832;4.758;2023-06-26T03:55:11;4.68;;;3.30;;
11490;SDS011;5802;52.832;4.758;2023-06-26T03:57:38;4.30;;;3.22;;
11490;SDS011;5802;52.832;4.758;2023-06-26T04:00:07;4.22;;;3.00;;
11490;SDS011;5802;52.832;4.758;2023-06-26T04:02:36;3.47;;;2.80;;
11490;SDS011;5802;52.832;4.758;2023-06-26T04:05:03;5.32;;;3.03;;
11490;SDS011;5802;52.832;4.758;2023-06-26T04:07:30;4.95;;;2.95;;
11490;SDS011;5802;52.832;4.758;2023-06-26T04:09:57;4.40;;;2.78;;
11490;SDS011;5802;52.832;4.758;2023-06-26T04:12:25;3.53;;;2.90;;
11490;SDS011;5802;52.832;4.758;2023-06-26T04:14:52;4.25;;;2.95;;
11490;SDS011;5802;52.832;4.758;2023-06-26T04:17:20;6.20;;;2.80;;
11490;SDS011;5802;52.832;4.758;2023-06-26T04:19:47;4.50;;;2.65;;
11490;SDS011;5802;52.832;4.758;2023-06-26T04:22:13;4.47;;;2.85;;
11490;SDS011;5802;52.832;4.758;2023-06-26T04:24:40;5.10;;;2.72;;
11490;SDS011;5802;52.832;4.758;2023-06-26T04:27:07;3.90;;;2.45;;
11490;SDS011;5802;52.832;4.758;2023-06-26T04:29:33;4.55;;;2.90;;
11490;SDS011;5802;52.832;4.758;2023-06-26T04:32:00;5.40;;;3.00;;
11490;SDS011;5802;52.832;4.758;2023-06-26T04:34:29;3.22;;;2.45;;
11490;SDS011;5802;52.832;4.758;2023-06-26T04:36:57;5.60;;;3.08;;
11490;SDS011;5802;52.832;4.758;2023-06-26T04:39:24;6.50;;;3.20;;
11490;SDS011;5802;52.832;4.758;2023-06-26T04:41:51;4.78;;;2.75;;
11490;SDS011;5802;52.832;4.758;2023-06-26T04:44:17;6.75;;;2.70;;
11490;SDS011;5802;52.832;4.758;2023-06-26T04:46:44;5.97;;;2.70;;
11490;SDS011;5802;52.832;4.758;2023-06-26T04:49:11;4.95;;;2.50;;
11490;SDS011;5802;52.832;4.758;2023-06-26T04:51:39;5.78;;;2.63;;
11490;SDS011;5802;52.832;4.758;2023-06-26T04:54:06;7.35;;;2.80;;
11490;SDS011;5802;52.832;4.758;2023-06-26T04:56:33;4.55;;;2.60;;
11490;SDS011;5802;52.832;4.758;2023-06-26T04:59:00;4.25;;;2.67;;
11490;SDS011;5802;52.832;4.758;2023-06-26T05:01:27;4.78;;;2.50;;
11490;SDS011;5802;52.832;4.758;2023-06-26T05:03:55;3.90;;;2.53;;
11490;SDS011;5802;52.832;4.758;2023-06-26T05:06:21;5.30;;;3.20;;
11490;SDS011;5802;52.832;4.758;2023-06-26T05:08:50;4.75;;;2.65;;
11490;SDS011;5802;52.832;4.758;2023-06-26T05:11:16;4.75;;;2.53;;
11490;SDS011;5802;52.832;4.758;2023-06-26T05:13:43;6.63;;;2.35;;
11490;SDS011;5802;52.832;4.758;2023-06-26T05:16:10;4.75;;;2.38;;
11490;SDS011;5802;52.832;4.758;2023-06-26T05:18:37;5.13;;;2.28;;
11490;SDS011;5802;52.832;4.758;2023-06-26T05:21:03;5.13;;;2.45;;
11490;SDS011;5802;52.832;4.758;2023-06-26T05:23:31;5.68;;;2.72;;
11490;SDS011;5802;52.832;4.758;2023-06-26T05:26:00;4.68;;;2.70;;
11490;SDS011;5802;52.832;4.758;2023-06-26T05:28:28;5.45;;;2.90;;
11490;SDS011;5802;52.832;4.758;2023-06-26T05:30:56;3.78;;;2.45;;
11490;SDS011;5802;52.832;4.758;2023-06-26T05:33:24;4.82;;;2.30;;
11490;SDS011;5802;52.832;4.758;2023-06-26T05:35:52;3.92;;;2.38;;
11490;SDS011;5802;52.832;4.758;2023-06-26T05:38:20;4.63;;;2.50;;
11490;SDS011;5802;52.832;4.758;2023-06-26T05:40:47;4.85;;;2.38;;
11490;SDS011;5802;52.832;4.758;2023-06-26T05:43:16;4.78;;;2.22;;
11490;SDS011;5802;52.832;4.758;2023-06-26T05:45:46;4.72;;;2.25;;
11490;SDS011;5802;52.832;4.758;2023-06-26T05:48:14;5.45;;;2.35;;
11490;SDS011;5802;52.832;4.758;2023-06-26T05:50:41;4.00;;;2.03;;
11490;SDS011;5802;52.832;4.758;2023-06-26T05:53:10;5.07;;;2.10;;
11490;SDS011;5802;52.832;4.758;2023-06-26T05:55:37;3.72;;;2.20;;
11490;SDS011;5802;52.832;4.758;2023-06-26T05:58:06;2.85;;;2.20;;
11490;SDS011;5802;52.832;4.758;2023-06-26T06:00:35;5.07;;;2.05;;
11490;SDS011;5802;52.832;4.758;2023-06-26T06:03:02;3.75;;;2.28;;
11490;SDS011;5802;52.832;4.758;2023-06-26T06:05:29;3.83;;;2.22;;
11490;SDS011;5802;52.832;4.758;2023-06-26T06:07:56;4.85;;;2.42;;
11490;SDS011;5802;52.832;4.758;2023-06-26T06:10:22;5.15;;;2.40;;
11490;SDS011;5802;52.832;4.758;2023-06-26T06:12:49;4.22;;;2.33;;
11490;SDS011;5802;52.832;4.758;2023-06-26T06:15:17;4.05;;;2.53;;
11490;SDS011;5802;52.832;4.758;2023-06-26T06:17:45;6.32;;;2.30;;
11490;SDS011;5802;52.832;4.758;2023-06-26T06:20:11;3.17;;;1.98;;
11490;SDS011;5802;52.832;4.758;2023-06-26T06:22:38;4.00;;;2.20;;
11490;SDS011;5802;52.832;4.758;2023-06-26T06:25:05;4.07;;;2.50;;
11490;SDS011;5802;52.832;4.758;2023-06-26T06:27:32;5.03;;;2.42;;
11490;SDS011;5802;52.832;4.758;2023-06-26T06:29:59;4.90;;;2.40;;
11490;SDS011;5802;52.832;4.758;2023-06-26T06:32:25;5.38;;;2.33;;
11490;SDS011;5802;52.832;4.758;2023-06-26T06:34:53;7.45;;;2.70;;
11490;SDS011;5802;52.832;4.758;2023-06-26T06:37:20;5.30;;;2.75;;
11490;SDS011;5802;52.832;4.758;2023-06-26T06:39:47;7.78;;;2.83;;
11490;SDS011;5802;52.832;4.758;2023-06-26T06:42:13;7.22;;;2.75;;
11490;SDS011;5802;52.832;4.758;2023-06-26T06:44:40;6.80;;;2.33;;
11490;SDS011;5802;52.832;4.758;2023-06-26T06:47:07;4.70;;;2.40;;
11490;SDS011;5802;52.832;4.758;2023-06-26T06:49:33;5.55;;;2.45;;
11490;SDS011;5802;52.832;4.758;2023-06-26T06:52:02;6.22;;;2.65;;
11490;SDS011;5802;52.832;4.758;2023-06-26T06:54:29;8.52;;;2.65;;
11490;SDS011;5802;52.832;4.758;2023-06-26T06:56:55;9.15;;;2.92;;
11490;SDS011;5802;52.832;4.758;2023-06-26T06:59:22;10.35;;;2.90;;
11490;SDS011;5802;52.832;4.758;2023-06-26T07:01:49;6.75;;;2.45;;
11490;SDS011;5802;52.832;4.758;2023-06-26T07:04:16;5.15;;;2.65;;
11490;SDS011;5802;52.832;4.758;2023-06-26T07:06:42;5.88;;;2.30;;
11490;SDS011;5802;52.832;4.758;2023-06-26T07:09:11;4.70;;;2.10;;
11490;SDS011;5802;52.832;4.758;2023-06-26T07:11:37;5.13;;;2.25;;
11490;SDS011;5802;52.832;4.758;2023-06-26T07:14:04;9.30;;;2.63;;
11490;SDS011;5802;52.832;4.758;2023-06-26T07:16:30;6.28;;;2.67;;
11490;SDS011;5802;52.832;4.758;2023-06-26T07:18:57;6.05;;;2.25;;
11490;SDS011;5802;52.832;4.758;2023-06-26T07:21:24;5.78;;;2.70;;
11490;SDS011;5802;52.832;4.758;2023-06-26T07:23:51;5.72;;;2.60;;
11490;SDS011;5802;52.832;4.758;2023-06-26T07:26:19;6.65;;;2.22;;
11490;SDS011;5802;52.832;4.758;2023-06-26T07:28:47;6.82;;;2.35;;
11490;SDS011;5802;52.832;4.758;2023-06-26T07:31:14;6.00;;;2.42;;
11490;SDS011;5802;52.832;4.758;2023-06-26T07:33:41;6.35;;;2.00;;
11490;SDS011;5802;52.832;4.758;2023-06-26T07:36:08;5.65;;;2.17;;
11490;SDS011;5802;52.832;4.758;2023-06-26T07:38:35;6.65;;;2.20;;
11490;SDS011;5802;52.832;4.758;2023-06-26T07:41:01;5.53;;;2.00;;
11490;SDS011;5802;52.832;4.758;2023-06-26T07:43:29;6.03;;;1.85;;
11490;SDS011;5802;52.832;4.758;2023-06-26T07:45:57;4.40;;;1.83;;
11490;SDS011;5802;52.832;4.758;2023-06-26T07:48:24;5.80;;;2.28;;
11490;SDS011;5802;52.832;4.758;2023-06-26T07:50:51;6.93;;;2.20;;
11490;SDS011;5802;52.832;4.758;2023-06-26T07:53:18;3.92;;;1.67;;
11490;SDS011;5802;52.832;4.758;2023-06-26T07:55:45;6.25;;;2.00;;
11490;SDS011;5802;52.832;4.758;2023-06-26T07:58:11;5.57;;;2.03;;
11490;SDS011;5802;52.832;4.758;2023-06-26T08:00:39;3.58;;;1.60;;
11490;SDS011;5802;52.832;4.758;2023-06-26T08:03:06;5.40;;;2.10;;
11490;SDS011;5802;52.832;4.758;2023-06-26T08:05:33;3.83;;;2.00;;
11490;SDS011;5802;52.832;4.758;2023-06-26T08:08:00;4.90;;;1.98;;
11490;SDS011;5802;52.832;4.758;2023-06-26T08:10:27;5.22;;;2.03;;
11490;SDS011;5802;52.832;4.758;2023-06-26T08:12:55;4.80;;;2.22;;
11490;SDS011;5802;52.832;4.758;2023-06-26T08:15:22;5.43;;;2.00;;
11490;SDS011;5802;52.832;4.758;2023-06-26T08:17:50;7.07;;;2.40;;
11490;SDS011;5802;52.832;4.758;2023-06-26T08:20:16;7.03;;;1.73;;
11490;SDS011;5802;52.832;4.758;2023-06-26T08:22:44;5.57;;;1.85;;
11490;SDS011;5802;52.832;4.758;2023-06-26T08:25:12;7.75;;;1.85;;
11490;SDS011;5802;52.832;4.758;2023-06-26T08:27:39;3.42;;;1.80;;
11490;SDS011;5802;52.832;4.758;2023-06-26T08:30:06;5.00;;;2.00;;
11490;SDS011;5802;52.832;4.758;2023-06-26T08:32:33;6.60;;;1.85;;
11490;SDS011;5802;52.832;4.758;2023-06-26T08:35:01;6.70;;;2.42;;
11490;SDS011;5802;52.832;4.758;2023-06-26T08:37:28;5.45;;;1.75;;
11490;SDS011;5802;52.832;4.758;2023-06-26T08:39:57;4.38;;;2.10;;
11490;SDS011;5802;52.832;4.758;2023-06-26T08:42:24;3.58;;;1.70;;
11490;SDS011;5802;52.832;4.758;2023-06-26T08:44:51;7.88;;;2.53;;
11490;SDS011;5802;52.832;4.758;2023-06-26T08:47:18;5.93;;;2.00;;
11490;SDS011;5802;52.832;4.758;2023-06-26T08:49:46;8.77;;;2.22;;
11490;SDS011;5802;52.832;4.758;2023-06-26T08:52:19;4.55;;;1.77;;
11490;SDS011;5802;52.832;4.758;2023-06-26T08:54:51;4.60;;;2.33;;
11490;SDS011;5802;52.832;4.758;2023-06-26T08:57:20;6.43;;;1.88;;
11490;SDS011;5802;52.832;4.758;2023-06-26T08:59:49;5.28;;;2.10;;
11490;SDS011;5802;52.832;4.758;2023-06-26T09:02:17;6.35;;;1.90;;
11490;SDS011;5802;52.832;4.758;2023-06-26T09:04:45;5.22;;;2.03;;
11490;SDS011;5802;52.832;4.758;2023-06-26T09:07:13;5.15;;;1.90;;
11490;SDS011;5802;52.832;4.758;2023-06-26T09:09:41;4.78;;;1.50;;
11490;SDS011;5802;52.832;4.758;2023-06-26T09:12:08;5.72;;;1.85;;
11490;SDS011;5802;52.832;4.758;2023-06-26T09:14:36;5.93;;;1.77;;
11490;SDS011;5802;52.832;4.758;2023-06-26T09:17:03;4.78;;;1.77;;
11490;SDS011;5802;52.832;4.758;2023-06-26T09:19:30;4.07;;;1.90;;
11490;SDS011;5802;52.832;4.758;2023-06-26T09:21:56;5.07;;;1.77;;
11490;SDS011;5802;52.832;4.758;2023-06-26T09:24:23;5.85;;;1.88;;
11490;SDS011;5802;52.832;4.758;2023-06-26T09:26:52;7.22;;;2.00;;
11490;SDS011;5802;52.832;4.758;2023-06-26T09:29:19;6.75;;;1.90;;
11490;SDS011;5802;52.832;4.758;2023-06-26T09:31:46;6.20;;;1.80;;
11490;SDS011;5802;52.832;4.758;2023-06-26T09:34:13;4.32;;;1.92;;
11490;SDS011;5802;52.832;4.758;2023-06-26T09:36:39;8.00;;;2.22;;
11490;SDS011;5802;52.832;4.758;2023-06-26T09:39:11;5.40;;;1.75;;
11490;SDS011;5802;52.832;4.758;2023-06-26T09:41:40;8.32;;;2.35;;
11490;SDS011;5802;52.832;4.758;2023-06-26T09:44:10;7.68;;;2.60;;
11490;SDS011;5802;52.832;4.758;2023-06-26T09:46:38;6.30;;;2.00;;
11490;SDS011;5802;52.832;4.758;2023-06-26T09:49:05;9.30;;;1.92;;
11490;SDS011;5802;52.832;4.758;2023-06-26T09:51:33;8.85;;;2.17;;
11490;SDS011;5802;52.832;4.758;2023-06-26T09:54:00;6.75;;;1.90;;
11490;SDS011;5802;52.832;4.758;2023-06-26T09:56:28;4.97;;;2.00;;
11490;SDS011;5802;52.832;4.758;2023-06-26T09:58:56;5.78;;;2.00;;
11490;SDS011;5802;52.832;4.758;2023-06-26T10:01:24;5.70;;;1.58;;
11490;SDS011;5802;52.832;4.758;2023-06-26T10:03:52;4.90;;;2.05;;
11490;SDS011;5802;52.832;4.758;2023-06-26T10:06:22;4.20;;;1.63;;
11490;SDS011;5802;52.832;4.758;2023-06-26T10:08:52;8.85;;;1.90;;
11490;SDS011;5802;52.832;4.758;2023-06-26T10:11:21;3.97;;;1.50;;
11490;SDS011;5802;52.832;4.758;2023-06-26T10:13:49;6.72;;;1.90;;
11490;SDS011;5802;52.832;4.758;2023-06-26T10:16:19;3.92;;;1.70;;
11490;SDS011;5802;52.832;4.758;2023-06-26T10:18:51;6.38;;;1.92;;
11490;SDS011;5802;52.832;4.758;2023-06-26T10:21:20;3.88;;;1.67;;
11490;SDS011;5802;52.832;4.758;2023-06-26T10:23:49;4.25;;;1.85;;
11490;SDS011;5802;52.832;4.758;2023-06-26T10:26:17;5.47;;;1.88;;
11490;SDS011;5802;52.832;4.758;2023-06-26T10:28:47;7.35;;;1.80;;
11490;SDS011;5802;52.832;4.758;2023-06-26T10:31:17;6.93;;;2.38;;
11490;SDS011;5802;52.832;4.758;2023-06-26T10:33:46;2.83;;;1.63;;
11490;SDS011;5802;52.832;4.758;2023-06-26T10:36:15;7.15;;;1.83;;
11490;SDS011;5802;52.832;4.758;2023-06-26T10:38:50;5.05;;;1.77;;
11490;SDS011;5802;52.832;4.758;2023-06-26T10:41:21;5.07;;;1.85;;
11490;SDS011;5802;52.832;4.758;2023-06-26T10:43:49;3.85;;;1.70;;
11490;SDS011;5802;52.832;4.758;2023-06-26T10:46:17;5.50;;;1.90;;
11490;SDS011;5802;52.832;4.758;2023-06-26T10:48:57;6.22;;;1.92;;
11490;SDS011;5802;52.832;4.758;2023-06-26T10:51:26;6.68;;;1.80;;
11490;SDS011;5802;52.832;4.758;2023-06-26T10:53:54;4.07;;;1.67;;
11490;SDS011;5802;52.832;4.758;2023-06-26T10:56:21;5.45;;;1.80;;
11490;SDS011;5802;52.832;4.758;2023-06-26T10:59:14;5.50;;;1.80;;
11490;SDS011;5802;52.832;4.758;2023-06-26T11:01:42;5.88;;;1.90;;
11490;SDS011;5802;52.832;4.758;2023-06-26T11:04:11;5.13;;;1.58;;
11490;SDS011;5802;52.832;4.758;2023-06-26T11:06:41;4.57;;;1.58;;
11490;SDS011;5802;52.832;4.758;2023-06-26T11:09:11;6.85;;;1.80;;
11490;SDS011;5802;52.832;4.758;2023-06-26T11:11:55;4.93;;;1.92;;
11490;SDS011;5802;52.832;4.758;2023-06-26T11:14:30;4.80;;;1.85;;
11490;SDS011;5802;52.832;4.758;2023-06-26T11:16:57;5.45;;;1.75;;
11490;SDS011;5802;52.832;4.758;2023-06-26T11:19:25;6.63;;;1.73;;
11490;SDS011;5802;52.832;4.758;2023-06-26T11:21:58;5.65;;;1.95;;
11490;SDS011;5802;52.832;4.758;2023-06-26T11:24:26;5.13;;;2.00;;
11490;SDS011;5802;52.832;4.758;2023-06-26T11:26:54;4.10;;;1.85;;
11490;SDS011;5802;52.832;4.758;2023-06-26T11:29:25;4.57;;;1.77;;
11490;SDS011;5802;52.832;4.758;2023-06-26T11:31:57;4.90;;;2.00;;
11490;SDS011;5802;52.832;4.758;2023-06-26T11:34:25;3.90;;;1.60;;
11490;SDS011;5802;52.832;4.758;2023-06-26T11:36:56;5.45;;;1.63;;
11490;SDS011;5802;52.832;4.758;2023-06-26T11:39:24;4.18;;;1.73;;
11490;SDS011;5802;52.832;4.758;2023-06-26T11:41:51;4.93;;;2.00;;
11490;SDS011;5802;52.832;4.758;2023-06-26T11:44:18;5.95;;;1.70;;
11490;SDS011;5802;52.832;4.758;2023-06-26T11:46:45;5.00;;;1.88;;
11490;SDS011;5802;52.832;4.758;2023-06-26T11:49:14;5.10;;;1.95;;
11490;SDS011;5802;52.832;4.758;2023-06-26T11:51:42;5.07;;;1.92;;
11490;SDS011;5802;52.832;4.758;2023-06-26T11:54:09;7.97;;;2.05;;
11490;SDS011;5802;52.832;4.758;2023-06-26T11:56:38;3.53;;;1.48;;
11490;SDS011;5802;52.832;4.758;2023-06-26T11:59:06;5.85;;;1.80;;
11490;SDS011;5802;52.832;4.758;2023-06-26T12:01:34;5.10;;;1.85;;
11490;SDS011;5802;52.832;4.758;2023-06-26T12:04:02;5.65;;;2.10;;
11490;SDS011;5802;52.832;4.758;2023-06-26T12:06:30;5.97;;;1.88;;
11490;SDS011;5802;52.832;4.758;2023-06-26T12:09:00;4.10;;;1.70;;
11490;SDS011;5802;52.832;4.758;2023-06-26T12:11:30;4.63;;;1.85;;
11490;SDS011;5802;52.832;4.758;2023-06-26T12:13:58;6.95;;;1.80;;
11490;SDS011;5802;52.832;4.758;2023-06-26T12:16:26;4.07;;;1.63;;
11490;SDS011;5802;52.832;4.758;2023-06-26T12:18:57;6.63;;;2.05;;
11490;SDS011;5802;52.832;4.758;2023-06-26T12:21:27;5.93;;;1.70;;
11490;SDS011;5802;52.832;4.758;2023-06-26T12:23:58;6.13;;;1.70;;
11490;SDS011;5802;52.832;4.758;2023-06-26T12:26:26;4.43;;;2.00;;
11490;SDS011;5802;52.832;4.758;2023-06-26T12:29:02;8.13;;;1.90;;
11490;SDS011;5802;52.832;4.758;2023-06-26T12:31:29;5.80;;;1.73;;
11490;SDS011;5802;52.832;4.758;2023-06-26T12:33:57;6.85;;;1.70;;
11490;SDS011;5802;52.832;4.758;2023-06-26T12:36:24;6.47;;;2.10;;
11490;SDS011;5802;52.832;4.758;2023-06-26T12:38:52;4.28;;;1.98;;
11490;SDS011;5802;52.832;4.758;2023-06-26T12:41:19;4.55;;;1.63;;
11490;SDS011;5802;52.832;4.758;2023-06-26T12:43:55;6.90;;;2.10;;
11490;SDS011;5802;52.832;4.758;2023-06-26T12:46:33;5.05;;;2.10;;
11490;SDS011;5802;52.832;4.758;2023-06-26T12:49:01;7.35;;;2.08;;
11490;SDS011;5802;52.832;4.758;2023-06-26T12:51:28;3.85;;;1.75;;
11490;SDS011;5802;52.832;4.758;2023-06-26T12:53:54;5.85;;;1.70;;
11490;SDS011;5802;52.832;4.758;2023-06-26T12:56:21;6.20;;;1.92;;
11490;SDS011;5802;52.832;4.758;2023-06-26T12:58:48;11.07;;;1.90;;
11490;SDS011;5802;52.832;4.758;2023-06-26T13:01:14;4.68;;;1.60;;
11490;SDS011;5802;52.832;4.758;2023-06-26T13:03:46;6.93;;;2.08;;
11490;SDS011;5802;52.832;4.758;2023-06-26T13:06:12;5.88;;;1.90;;
11490;SDS011;5802;52.832;4.758;2023-06-26T13:08:40;4.78;;;1.80;;
11490;SDS011;5802;52.832;4.758;2023-06-26T13:11:07;6.60;;;2.22;;
11490;SDS011;5802;52.832;4.758;2023-06-26T13:13:34;5.85;;;1.92;;
11490;SDS011;5802;52.832;4.758;2023-06-26T13:16:02;4.15;;;1.83;;
11490;SDS011;5802;52.832;4.758;2023-06-26T13:18:30;4.20;;;1.85;;
11490;SDS011;5802;52.832;4.758;2023-06-26T13:20:59;5.15;;;2.00;;
11490;SDS011;5802;52.832;4.758;2023-06-26T13:23:25;6.75;;;2.05;;
11490;SDS011;5802;52.832;4.758;2023-06-26T13:25:53;4.05;;;1.70;;
11490;SDS011;5802;52.832;4.758;2023-06-26T13:28:22;5.35;;;1.88;;
11490;SDS011;5802;52.832;4.758;2023-06-26T13:30:48;3.55;;;1.67;;
11490;SDS011;5802;52.832;4.758;2023-06-26T13:33:16;4.03;;;1.65;;
11490;SDS011;5802;52.832;4.758;2023-06-26T13:35:44;4.90;;;1.50;;
11490;SDS011;5802;52.832;4.758;2023-06-26T13:38:12;5.22;;;2.03;;
11490;SDS011;5802;52.832;4.758;2023-06-26T13:40:39;7.40;;;2.08;;
11490;SDS011;5802;52.832;4.758;2023-06-26T13:43:06;5.38;;;2.25;;
11490;SDS011;5802;52.832;4.758;2023-06-26T13:45:32;6.32;;;2.13;;
11490;SDS011;5802;52.832;4.758;2023-06-26T13:47:59;4.35;;;1.90;;
11490;SDS011;5802;52.832;4.758;2023-06-26T13:50:28;7.90;;;1.90;;
11490;SDS011;5802;52.832;4.758;2023-06-26T13:52:55;3.58;;;1.90;;
11490;SDS011;5802;52.832;4.758;2023-06-26T13:55:24;6.40;;;1.90;;
11490;SDS011;5802;52.832;4.758;2023-06-26T13:57:51;4.25;;;1.80;;
11490;SDS011;5802;52.832;4.758;2023-06-26T14:00:18;3.15;;;1.50;;
11490;SDS011;5802;52.832;4.758;2023-06-26T14:02:47;5.00;;;2.00;;
11490;SDS011;5802;52.832;4.758;2023-06-26T14:05:14;5.07;;;1.77;;
11490;SDS011;5802;52.832;4.758;2023-06-26T14:07:43;4.72;;;1.85;;
11490;SDS011;5802;52.832;4.758;2023-06-26T14:10:10;3.50;;;1.65;;
11490;SDS011;5802;52.832;4.758;2023-06-26T14:12:39;4.07;;;1.90;;
11490;SDS011;5802;52.832;4.758;2023-06-26T14:15:06;5.03;;;1.80;;
11490;SDS011;5802;52.832;4.758;2023-06-26T14:20:55;5.38;;;1.80;;
11490;SDS011;5802;52.832;4.758;2023-06-26T14:23:22;5.93;;;1.90;;
11490;SDS011;5802;52.832;4.758;2023-06-26T14:32:35;5.90;;;1.88;;
11490;SDS011;5802;52.832;4.758;2023-06-26T14:35:02;4.30;;;1.60;;
11490;SDS011;5802;52.832;4.758;2023-06-26T14:37:29;4.53;;;1.90;;
11490;SDS011;5802;52.832;4.758;2023-06-26T14:39:57;7.20;;;1.90;;
11490;SDS011;5802;52.832;4.758;2023-06-26T14:42:24;3.15;;;1.58;;
11490;SDS011;5802;52.832;4.758;2023-06-26T14:44:57;3.05;;;1.65;;
11490;SDS011;5802;52.832;4.758;2023-06-26T14:47:24;6.18;;;1.70;;
11490;SDS011;5802;52.832;4.758;2023-06-26T14:49:52;5.63;;;1.85;;
11490;SDS011;5802;52.832;4.758;2023-06-26T14:52:18;4.20;;;1.80;;
11490;SDS011;5802;52.832;4.758;2023-06-26T14:54:45;4.43;;;1.63;;
11490;SDS011;5802;52.832;4.758;2023-06-26T14:57:12;2.97;;;1.70;;
11490;SDS011;5802;52.832;4.758;2023-06-26T14:59:39;5.85;;;1.73;;
11490;SDS011;5802;52.832;4.758;2023-06-26T15:02:05;4.47;;;1.95;;
11490;SDS011;5802;52.832;4.758;2023-06-26T15:04:32;5.00;;;1.70;;
11490;SDS011;5802;52.832;4.758;2023-06-26T15:07:00;4.38;;;1.65;;
11490;SDS011;5802;52.832;4.758;2023-06-26T15:09:27;4.38;;;1.77;;
11490;SDS011;5802;52.832;4.758;2023-06-26T15:11:53;5.28;;;1.65;;
11490;SDS011;5802;52.832;4.758;2023-06-26T15:14:20;6.18;;;2.10;;